Time;durP1;ratioP1;P1;durP2;ratioP2;P2;SDS_P1;SDS_P2;PMS_P1;PMS_P2;Temp;Humidity;BMP_temperature;BMP_pressure;BME280_temperature;BME280_humidity;BME280_pressure;Samples;Min_cycle;Max_cycle;Signal;HPM_P1;HPM_P2
2022/12/23 00:02:14;;;;;;;21.20;14.85;;;10.20;99.90;;;;;;5051274;28;20385;-88
2022/12/23 00:05:02;;;;;;;28.05;17.15;;;10.20;99.90;;;;;;5051078;28;20465;-87
2022/12/23 00:07:27;;;;;;;30.70;18.92;;;10.20;99.90;;;;;;5051592;28;20125;-89
2022/12/23 00:09:54;;;;;;;27.02;17.45;;;10.20;99.90;;;;;;5051556;28;20057;-87
2022/12/23 00:15:09;;;;;;;26.90;20.25;;;10.20;99.90;;;;;;5053264;28;20051;-88
2022/12/23 00:17:45;;;;;;;30.65;18.33;;;10.20;99.90;;;;;;5051864;28;20071;-89
2022/12/23 00:20:14;;;;;;;29.48;18.67;;;10.20;99.90;;;;;;5052200;28;20029;-90
2022/12/23 00:25:39;;;;;;;30.75;18.38;;;10.20;99.90;;;;;;5053400;28;20036;-91
2022/12/23 00:28:07;;;;;;;33.78;19.42;;;10.10;99.90;;;;;;5042250;28;20491;-89
2022/12/23 00:30:32;;;;;;;27.42;17.05;;;10.20;99.90;;;;;;5051811;28;20523;-89
2022/12/23 00:32:58;;;;;;;29.33;18.27;;;10.20;99.90;;;;;;5051549;28;20025;-88
2022/12/23 00:35:30;;;;;;;30.50;18.70;;;10.20;99.90;;;;;;5034994;28;20381;-88
2022/12/23 00:38:04;;;;;;;36.63;19.48;;;10.20;99.90;;;;;;5032110;28;20095;-88
2022/12/23 00:43:16;;;;;;;27.25;17.65;;;10.20;99.90;;;;;;5032772;28;20080;-89
2022/12/23 00:45:42;;;;;;;30.25;18.88;;;10.20;99.90;;;;;;5031646;28;20465;-88
2022/12/23 00:50:59;;;;;;;36.13;21.30;;;10.20;99.90;;;;;;5032441;28;20048;-88
2022/12/23 00:53:27;;;;;;;46.50;22.75;;;10.20;99.90;;;;;;5031678;28;20042;-88
2022/12/23 00:55:54;;;;;;;31.08;19.67;;;10.10;99.90;;;;;;5031766;28;20091;-88
2022/12/23 00:58:24;;;;;;;33.38;18.95;;;10.20;99.90;;;;;;5028933;28;20115;-87
2022/12/23 01:06:26;;;;;;;34.35;20.63;;;10.20;99.90;;;;;;5033113;28;20045;-88
2022/12/23 01:08:52;;;;;;;32.78;19.20;;;10.20;99.90;;;;;;5030959;28;20021;-87
2022/12/23 01:11:19;;;;;;;28.75;17.48;;;10.10;99.90;;;;;;5031342;28;20461;-88
2022/12/23 01:13:44;;;;;;;30.23;18.10;;;10.20;99.90;;;;;;5015244;28;20036;-88
2022/12/23 01:16:10;;;;;;;29.95;17.15;;;10.10;99.90;;;;;;5031250;28;20033;-88
2022/12/23 01:18:40;;;;;;;27.83;16.08;;;10.10;99.90;;;;;;5032584;28;20041;-86
2022/12/23 01:21:09;;;;;;;29.65;17.77;;;10.10;99.90;;;;;;5034661;28;20045;-86
2022/12/23 01:23:35;;;;;;;33.20;17.10;;;10.10;99.90;;;;;;5034564;28;20025;-86
2022/12/23 01:26:04;;;;;;;34.80;18.90;;;10.10;99.90;;;;;;5034453;28;20022;-87
2022/12/23 01:28:31;;;;;;;36.85;19.70;;;10.10;99.90;;;;;;5036037;28;20060;-87
2022/12/23 01:30:59;;;;;;;32.42;18.95;;;10.10;99.90;;;;;;5034849;28;20091;-86
2022/12/23 01:33:28;;;;;;;32.60;18.90;;;10.10;99.90;;;;;;5034296;28;20084;-87
2022/12/23 01:36:04;;;;;;;37.95;19.33;;;10.10;99.90;;;;;;5034734;28;20124;-87
2022/12/23 01:38:38;;;;;;;30.33;19.08;;;10.10;99.90;;;;;;5034211;28;20026;-88
2022/12/23 01:41:05;;;;;;;29.30;16.90;;;10.10;99.90;;;;;;5019029;28;20187;-87
2022/12/23 01:43:53;;;;;;;27.90;16.75;;;10.00;99.90;;;;;;5034635;28;20572;-88
2022/12/23 01:46:19;;;;;;;29.98;17.13;;;10.00;99.90;;;;;;5015382;28;20042;-87
2022/12/23 01:48:49;;;;;;;26.50;16.23;;;10.00;99.90;;;;;;5021357;28;20021;-89
2022/12/23 01:51:27;;;;;;;27.92;16.15;;;10.00;99.90;;;;;;5034631;28;20033;-88
2022/12/23 01:54:01;;;;;;;31.42;17.67;;;10.10;99.90;;;;;;5034267;28;20029;-89
2022/12/23 01:56:38;;;;;;;28.98;16.05;;;10.10;99.90;;;;;;5034122;28;20392;-88
2022/12/23 02:03:41;;;;;;;26.73;15.30;;;10.10;99.90;;;;;;5035520;28;20033;-87
2022/12/23 02:04:54;;;;;;;28.70;16.15;;;10.00;99.90;;;;;;5035645;28;20040;-88
2022/12/23 02:10:07;;;;;;;26.65;16.00;;;10.00;99.90;;;;;;5035722;28;20041;-88
2022/12/23 02:12:58;;;;;;;25.02;15.23;;;10.00;99.90;;;;;;5034315;28;20412;-89
2022/12/23 02:18:30;;;;;;;34.35;18.75;;;10.10;99.90;;;;;;5035547;28;20072;-88
2022/12/23 02:21:38;;;;;;;31.60;18.35;;;10.00;99.90;;;;;;5034124;28;20042;-87
2022/12/23 02:24:28;;;;;;;26.83;15.10;;;10.00;99.90;;;;;;4976185;28;20034;-89
2022/12/23 02:27:17;;;;;;;32.15;17.65;;;10.00;99.90;;;;;;4977105;28;20026;-88
2022/12/23 02:30:14;;;;;;;34.72;18.85;;;10.00;99.90;;;;;;5022583;28;20026;-88
2022/12/23 02:33:04;;;;;;;32.60;18.77;;;10.00;99.90;;;;;;5034011;28;20030;-88
2022/12/23 02:35:56;;;;;;;31.60;17.85;;;10.00;99.90;;;;;;5049393;28;20147;-88
2022/12/23 02:38:51;;;;;;;27.55;16.42;;;10.00;99.90;;;;;;5037871;28;20029;-87
2022/12/23 02:41:49;;;;;;;28.17;15.77;;;10.00;99.90;;;;;;5045737;28;20037;-88
2022/12/23 02:44:32;;;;;;;28.33;16.73;;;10.00;99.90;;;;;;5053158;28;20028;-88
2022/12/23 02:47:04;;;;;;;35.67;18.63;;;10.00;99.90;;;;;;5053333;28;20021;-88
2022/12/23 02:49:34;;;;;;;35.92;18.77;;;10.00;99.90;;;;;;5053381;28;20029;-88
2022/12/23 02:52:06;;;;;;;36.45;19.98;;;10.00;99.90;;;;;;5053544;28;20060;-89
2022/12/23 02:54:37;;;;;;;40.08;18.67;;;10.00;99.90;;;;;;5053275;28;20105;-88
2022/12/23 02:57:05;;;;;;;39.08;20.65;;;10.00;99.90;;;;;;5053990;28;20036;-88
2022/12/23 02:59:50;;;;;;;49.58;22.65;;;10.00;99.90;;;;;;5053495;28;20033;-88
2022/12/23 03:02:19;;;;;;;44.35;20.77;;;10.00;99.90;;;;;;5052630;28;20041;-88
2022/12/23 03:04:45;;;;;;;41.22;21.23;;;10.00;99.90;;;;;;5054419;28;20108;-88
2022/12/23 03:07:24;;;;;;;36.30;19.73;;;10.00;99.90;;;;;;5052958;28;20120;-88
2022/12/23 03:10:21;;;;;;;42.15;20.67;;;10.00;99.90;;;;;;5053262;28;20028;-89
2022/12/23 03:13:08;;;;;;;42.95;22.05;;;10.00;99.90;;;;;;5052639;28;20132;-89
2022/12/23 03:15:37;;;;;;;45.90;21.55;;;10.00;99.90;;;;;;5052836;28;20068;-88
2022/12/23 03:18:08;;;;;;;36.22;18.20;;;10.00;99.90;;;;;;5052532;28;20127;-88
2022/12/23 03:20:49;;;;;;;45.15;20.05;;;10.00;99.90;;;;;;5052097;28;20029;-87
2022/12/23 03:23:35;;;;;;;47.08;21.80;;;10.00;99.90;;;;;;5052763;28;20033;-87
2022/12/23 03:26:20;;;;;;;42.17;19.17;;;10.00;99.90;;;;;;5054078;28;20087;-87
2022/12/23 03:29:06;;;;;;;38.53;18.08;;;10.00;99.90;;;;;;5053088;28;20039;-87
2022/12/23 03:31:36;;;;;;;37.17;16.90;;;9.90;99.90;;;;;;5052911;28;20029;-87
2022/12/23 03:34:14;;;;;;;37.35;17.63;;;9.90;99.90;;;;;;5054532;28;20123;-88
2022/12/23 03:36:53;;;;;;;36.78;17.95;;;9.90;99.90;;;;;;5073965;28;20037;-88
2022/12/23 03:39:25;;;;;;;33.65;15.65;;;9.90;99.90;;;;;;5056322;28;20024;-87
2022/12/23 03:42:02;;;;;;;32.65;15.63;;;9.90;99.90;;;;;;5056546;28;20036;-87
2022/12/23 03:44:33;;;;;;;22.27;11.90;;;9.90;99.90;;;;;;5056957;28;20487;-88
2022/12/23 03:47:07;;;;;;;23.75;12.43;;;9.90;99.90;;;;;;5055824;28;20024;-88
2022/12/23 03:50:04;;;;;;;18.77;11.18;;;9.90;99.90;;;;;;5055979;28;20029;-88
2022/12/23 03:53:07;;;;;;;21.40;10.85;;;9.80;99.90;;;;;;5052503;28;20086;-88
2022/12/23 03:55:51;;;;;;;18.70;10.30;;;9.80;99.90;;;;;;5056037;28;20476;-88
2022/12/23 03:58:40;;;;;;;20.10;9.20;;;9.80;99.90;;;;;;5047119;28;20062;-88
2022/12/23 04:02:04;;;;;;;17.73;9.15;;;9.80;99.90;;;;;;5056225;28;20333;-88
2022/12/23 04:05:01;;;;;;;17.58;8.90;;;9.70;99.90;;;;;;5055451;28;20376;-89
2022/12/23 04:07:31;;;;;;;17.35;9.07;;;9.70;99.90;;;;;;5054527;28;20039;-88
2022/12/23 04:09:57;;;;;;;17.92;8.80;;;9.70;99.90;;;;;;5055625;28;20059;-90
2022/12/23 04:12:24;;;;;;;15.18;8.32;;;9.70;99.90;;;;;;5055725;28;20020;-88
2022/12/23 04:14:51;;;;;;;19.17;9.82;;;9.70;99.90;;;;;;5055332;28;20037;-88
2022/12/23 04:17:20;;;;;;;19.33;9.80;;;9.70;99.90;;;;;;5073058;28;20143;-89
2022/12/23 04:19:50;;;;;;;19.88;9.85;;;9.60;99.90;;;;;;5055558;28;20025;-88
2022/12/23 04:22:19;;;;;;;19.83;10.05;;;9.70;99.90;;;;;;5054888;28;20125;-88
2022/12/23 04:24:44;;;;;;;17.73;10.20;;;9.60;99.90;;;;;;5055083;28;20059;-88
2022/12/23 04:27:15;;;;;;;18.63;10.23;;;9.60;99.90;;;;;;5054569;28;20028;-88
2022/12/23 04:29:42;;;;;;;19.90;11.18;;;9.60;99.90;;;;;;5038789;28;20033;-88
2022/12/23 04:32:07;;;;;;;17.80;10.32;;;9.60;99.90;;;;;;5055413;28;20024;-86
2022/12/23 04:34:34;;;;;;;17.88;10.07;;;9.60;99.90;;;;;;5072716;28;20048;-87
2022/12/23 04:37:06;;;;;;;20.10;11.48;;;9.60;99.90;;;;;;5054795;28;20528;-87
2022/12/23 04:40:01;;;;;;;20.13;11.50;;;9.60;99.90;;;;;;5054552;28;20028;-88
2022/12/23 04:42:27;;;;;;;17.95;10.27;;;9.60;99.90;;;;;;5055252;28;20039;-88
2022/12/23 04:44:55;;;;;;;19.10;10.35;;;9.50;99.90;;;;;;5054681;28;20033;-88
2022/12/23 04:47:21;;;;;;;17.58;9.40;;;9.60;99.90;;;;;;5073225;28;20040;-88
2022/12/23 04:49:47;;;;;;;18.73;8.98;;;9.60;99.90;;;;;;5055037;28;20025;-88
2022/12/23 04:52:24;;;;;;;15.70;8.80;;;9.60;99.90;;;;;;5054942;28;20028;-88
2022/12/23 04:54:54;;;;;;;19.15;11.27;;;9.60;99.90;;;;;;5058136;28;20045;-88
2022/12/23 04:57:20;;;;;;;22.45;11.02;;;9.60;99.90;;;;;;5042299;28;20041;-89
2022/12/23 04:59:47;;;;;;;25.30;13.13;;;9.60;99.90;;;;;;5058576;28;20460;-87
2022/12/23 05:02:13;;;;;;;26.25;13.60;;;9.50;99.90;;;;;;5059000;28;20021;-88
2022/12/23 05:04:42;;;;;;;24.15;13.10;;;9.50;99.90;;;;;;5076717;28;20357;-88
2022/12/23 05:07:07;;;;;;;24.88;12.18;;;9.50;99.90;;;;;;5057634;28;20064;-88
2022/12/23 05:09:33;;;;;;;25.48;13.13;;;9.50;99.90;;;;;;5057720;28;20067;-89
2022/12/23 05:12:05;;;;;;;22.35;11.52;;;9.50;99.90;;;;;;5041292;28;20472;-88
2022/12/23 05:14:34;;;;;;;22.52;11.15;;;9.50;99.90;;;;;;5058475;28;20035;-88
2022/12/23 05:17:00;;;;;;;25.90;12.85;;;9.50;99.90;;;;;;5058330;28;20032;-88
2022/12/23 05:19:50;;;;;;;21.25;11.48;;;9.50;99.90;;;;;;5041887;28;20028;-88
2022/12/23 05:22:16;;;;;;;22.55;10.80;;;9.50;99.90;;;;;;5058834;28;20352;-88
2022/12/23 05:24:41;;;;;;;20.35;10.30;;;9.50;99.90;;;;;;5058137;28;20047;-88
2022/12/23 05:27:07;;;;;;;21.55;11.20;;;9.50;99.90;;;;;;5058134;28;20120;-89
2022/12/23 05:30:05;;;;;;;25.30;10.93;;;9.60;99.90;;;;;;5075736;28;20090;-88
2022/12/23 05:32:31;;;;;;;24.10;12.77;;;9.60;99.90;;;;;;5076638;28;20108;-86
2022/12/23 05:34:57;;;;;;;22.17;11.43;;;9.50;99.90;;;;;;5044862;28;20167;-88
2022/12/23 05:37:31;;;;;;;22.42;11.45;;;9.60;99.90;;;;;;5035343;28;20057;-89
2022/12/23 05:39:57;;;;;;;19.48;10.05;;;9.60;99.90;;;;;;5035001;28;20083;-88
2022/12/23 05:42:39;;;;;;;20.48;10.20;;;9.60;99.90;;;;;;5035021;28;20400;-88
2022/12/23 05:45:06;;;;;;;21.48;11.50;;;9.60;99.90;;;;;;5034708;28;20033;-88
2022/12/23 05:47:39;;;;;;;21.85;11.63;;;9.50;99.90;;;;;;5034691;28;20040;-88
2022/12/23 05:50:06;;;;;;;21.30;11.25;;;9.50;99.90;;;;;;5034397;28;20021;-86
2022/12/23 05:52:31;;;;;;;24.30;11.90;;;9.50;99.90;;;;;;5034710;28;20040;-88
2022/12/23 05:54:57;;;;;;;22.05;11.15;;;9.50;99.90;;;;;;5034556;28;20041;-88
2022/12/23 05:57:23;;;;;;;24.15;12.18;;;9.40;99.90;;;;;;5034413;28;20120;-88
2022/12/23 05:59:59;;;;;;;21.13;11.68;;;9.40;99.90;;;;;;5034385;28;20033;-88
2022/12/23 06:02:24;;;;;;;22.80;11.43;;;9.40;99.90;;;;;;5036029;28;20140;-88
2022/12/23 06:04:56;;;;;;;22.13;12.35;;;9.40;99.90;;;;;;5035351;28;20477;-88
2022/12/23 06:07:30;;;;;;;22.30;11.73;;;9.30;99.90;;;;;;5034863;28;20052;-88
2022/12/23 06:09:56;;;;;;;22.92;12.38;;;9.30;99.90;;;;;;5034401;28;20029;-88
2022/12/23 06:12:27;;;;;;;22.50;11.45;;;9.30;99.90;;;;;;5033596;28;20120;-87
2022/12/23 06:14:53;;;;;;;22.77;11.50;;;9.30;99.90;;;;;;5034437;28;20465;-86
2022/12/23 06:17:21;;;;;;;23.52;11.63;;;9.30;99.90;;;;;;5033350;28;20079;-86
2022/12/23 06:19:51;;;;;;;20.15;10.02;;;9.20;99.90;;;;;;5034232;28;20033;-87
2022/12/23 06:22:20;;;;;;;19.02;9.75;;;9.30;99.90;;;;;;5017471;28;20037;-87
2022/12/23 06:24:47;;;;;;;17.73;9.15;;;9.20;99.90;;;;;;5034176;28;20033;-88
2022/12/23 06:27:13;;;;;;;18.42;8.75;;;9.30;99.90;;;;;;5033800;28;20113;-87
2022/12/23 06:29:39;;;;;;;17.70;8.70;;;9.30;99.90;;;;;;5034797;28;20135;-86
2022/12/23 06:32:05;;;;;;;18.95;9.00;;;9.30;99.90;;;;;;5034036;28;20022;-87
2022/12/23 06:34:31;;;;;;;17.58;9.00;;;9.30;99.90;;;;;;5045483;28;20043;-86
2022/12/23 06:36:56;;;;;;;17.52;8.98;;;9.30;99.90;;;;;;5056491;28;20399;-87
2022/12/23 06:39:25;;;;;;;14.63;7.75;;;9.30;99.90;;;;;;5056677;28;20091;-87
2022/12/23 06:41:54;;;;;;;18.38;8.18;;;9.30;99.90;;;;;;5057168;28;20017;-87
2022/12/23 06:44:19;;;;;;;14.60;7.32;;;9.30;99.90;;;;;;5056374;28;20031;-87
2022/12/23 06:46:48;;;;;;;15.13;7.43;;;9.20;99.90;;;;;;5056282;28;20029;-87
2022/12/23 06:49:14;;;;;;;14.00;7.30;;;9.20;99.90;;;;;;5056798;28;20029;-88
2022/12/23 06:51:46;;;;;;;15.43;8.10;;;9.20;99.90;;;;;;5056642;28;20481;-87
2022/12/23 06:54:15;;;;;;;18.95;9.75;;;9.10;99.90;;;;;;5056337;28;20020;-87
2022/12/23 06:56:48;;;;;;;17.58;9.65;;;9.00;99.90;;;;;;5056434;28;20029;-87
2022/12/23 06:59:17;;;;;;;17.83;8.75;;;9.00;99.90;;;;;;5056017;28;20175;-89
2022/12/23 07:01:46;;;;;;;17.90;8.10;;;9.00;99.90;;;;;;5074438;28;20039;-88
2022/12/23 07:04:12;;;;;;;19.48;9.38;;;9.00;99.90;;;;;;5056365;28;20025;-87
2022/12/23 07:06:43;;;;;;;15.32;8.00;;;9.10;99.90;;;;;;5057317;28;20058;-87
2022/12/23 07:09:11;;;;;;;16.80;8.48;;;9.10;99.90;;;;;;5077540;28;20091;-88
2022/12/23 07:11:50;;;;;;;16.98;9.20;;;9.10;99.90;;;;;;5074224;28;20165;-87
2022/12/23 07:14:18;;;;;;;16.23;9.30;;;9.10;99.90;;;;;;5056390;28;20036;-88
2022/12/23 07:16:50;;;;;;;16.75;7.85;;;9.10;99.90;;;;;;5055286;28;20037;-87
2022/12/23 07:19:18;;;;;;;13.80;7.55;;;9.10;99.90;;;;;;5074458;28;20032;-87
2022/12/23 07:21:57;;;;;;;13.90;8.00;;;9.10;99.90;;;;;;5056201;28;20039;-87
2022/12/23 07:24:28;;;;;;;15.18;7.88;;;9.10;99.90;;;;;;5055661;28;20020;-86
2022/12/23 07:26:58;;;;;;;17.13;8.50;;;9.20;99.90;;;;;;5012012;28;20038;-87
2022/12/23 07:29:24;;;;;;;16.05;8.05;;;9.20;99.90;;;;;;5039252;28;20380;-87
2022/12/23 07:31:51;;;;;;;15.93;8.35;;;9.10;99.90;;;;;;5073771;28;20025;-86
2022/12/23 07:34:20;;;;;;;17.38;8.85;;;9.20;99.90;;;;;;5055715;28;20048;-87
2022/12/23 07:36:46;;;;;;;14.93;7.18;;;9.10;99.90;;;;;;5055270;28;20052;-88
2022/12/23 07:39:12;;;;;;;15.48;8.00;;;9.20;99.90;;;;;;5074349;28;20114;-87
2022/12/23 07:41:40;;;;;;;14.50;7.05;;;9.20;99.90;;;;;;5073998;28;20033;-87
2022/12/23 07:44:09;;;;;;;14.90;7.10;;;9.20;99.90;;;;;;5055636;28;20094;-87
2022/12/23 07:46:44;;;;;;;13.65;7.18;;;9.30;99.90;;;;;;5056205;28;20055;-88
2022/12/23 07:49:16;;;;;;;12.98;6.35;;;9.30;99.90;;;;;;5055619;28;20040;-88
2022/12/23 07:51:48;;;;;;;14.32;6.72;;;9.30;99.90;;;;;;5055972;28;20024;-87
2022/12/23 07:54:17;;;;;;;16.35;7.13;;;9.20;99.90;;;;;;5055634;28;20032;-86
2022/12/23 07:56:45;;;;;;;15.57;7.30;;;9.30;99.90;;;;;;5055355;28;20035;-87
2022/12/23 07:59:11;;;;;;;14.40;7.38;;;9.30;99.90;;;;;;5055819;28;20444;-87
2022/12/23 08:01:37;;;;;;;16.08;6.80;;;9.30;99.90;;;;;;5055462;28;20029;-87
2022/12/23 08:04:03;;;;;;;15.40;7.63;;;9.30;99.90;;;;;;5055262;28;20039;-87
2022/12/23 08:06:41;;;;;;;13.48;6.47;;;9.30;99.90;;;;;;5055137;28;20036;-87
2022/12/23 08:09:09;;;;;;;13.82;6.95;;;9.30;99.90;;;;;;5058607;28;20162;-87
2022/12/23 08:11:36;;;;;;;12.75;6.47;;;9.30;99.90;;;;;;5075587;28;20056;-87
2022/12/23 08:14:14;;;;;;;14.98;7.07;;;9.30;99.90;;;;;;5055507;28;20040;-88
2022/12/23 08:16:41;;;;;;;13.93;6.75;;;9.40;99.90;;;;;;5055174;28;20491;-87
2022/12/23 08:22:54;;;;;;;14.70;6.75;;;9.40;99.90;;;;;;5073532;28;20079;-87
2022/12/23 09:17:11;;;;;;;25.63;10.93;;;9.40;99.90;;;;;;5055786;28;20548;-87
2022/12/23 09:19:46;;;;;;;24.30;11.00;;;9.30;99.90;;;;;;5075732;28;20041;-87
2022/12/23 09:22:12;;;;;;;28.00;12.68;;;9.40;99.90;;;;;;5056864;28;20029;-88
2022/12/23 09:24:41;;;;;;;27.90;11.60;;;9.40;99.90;;;;;;5058030;28;20020;-88
2022/12/23 09:27:10;;;;;;;29.30;12.45;;;9.40;99.90;;;;;;5075946;28;20028;-87
2022/12/23 09:29:35;;;;;;;28.65;12.40;;;9.40;99.90;;;;;;5057434;28;20032;-89
2022/12/23 09:32:04;;;;;;;32.95;13.88;;;9.40;99.90;;;;;;5057553;28;20039;-88
2022/12/23 09:34:29;;;;;;;33.65;13.88;;;9.40;99.90;;;;;;5040866;28;20031;-88
2022/12/23 09:36:55;;;;;;;32.13;13.50;;;9.40;99.90;;;;;;5057221;28;20119;-87
2022/12/23 09:39:21;;;;;;;31.42;13.18;;;9.40;99.90;;;;;;5074361;28;20056;-87
2022/12/23 09:42:21;;;;;;;33.15;14.00;;;9.40;99.90;;;;;;5057336;28;20040;-87
2022/12/23 09:44:55;;;;;;;30.08;12.77;;;9.40;99.90;;;;;;5057794;28;20357;-88
2022/12/23 09:47:46;;;;;;;37.58;15.15;;;9.40;99.90;;;;;;5055756;28;20040;-88
2022/12/23 09:50:29;;;;;;;34.28;13.35;;;9.40;99.90;;;;;;5069300;28;20024;-87
2022/12/23 09:53:26;;;;;;;32.33;13.40;;;9.40;99.90;;;;;;5053352;28;20032;-87
2022/12/23 09:59:03;;;;;;;39.45;16.00;;;9.50;99.90;;;;;;5061338;28;20123;-87
2022/12/23 10:01:56;;;;;;;39.00;16.35;;;9.50;99.90;;;;;;5056510;28;20052;-88
2022/12/23 10:04:46;;;;;;;39.75;15.05;;;9.50;99.90;;;;;;5038189;28;20033;-88
2022/12/23 10:07:36;;;;;;;36.72;14.15;;;9.50;99.90;;;;;;5036357;28;20039;-88
2022/12/23 10:10:54;;;;;;;;;;;;;;;;;;;;;
2022/12/23 10:14:23;;;;;;;;;;;;;;;;;;;;;
2022/12/23 10:17:18;;;;;;;31.08;13.07;;;9.50;99.90;;;;;;4967662;28;20050;-87
2022/12/23 10:19:48;;;;;;;32.28;13.65;;;9.60;99.90;;;;;;4986422;28;20029;-87
2022/12/23 10:22:38;;;;;;;30.20;13.38;;;9.60;99.90;;;;;;5052627;28;20031;-86
2022/12/23 10:25:27;;;;;;;33.67;13.90;;;9.60;99.90;;;;;;5035168;28;20060;-87
2022/12/23 10:28:15;;;;;;;34.85;14.23;;;9.60;99.90;;;;;;5059349;28;20025;-88
2022/12/23 10:30:47;;;;;;;41.42;15.98;;;9.70;99.90;;;;;;5054239;28;20028;-87
2022/12/23 10:33:28;;;;;;;37.90;16.23;;;9.70;99.90;;;;;;5037674;28;20035;-88
2022/12/23 10:36:05;;;;;;;32.80;14.23;;;9.70;99.90;;;;;;5070736;28;20264;-89
2022/12/23 10:38:40;;;;;;;45.20;17.67;;;9.70;99.90;;;;;;5071033;28;20047;-88
2022/12/23 10:41:54;;;;;;;;;;;;;;;;;;;;;
2022/12/23 10:44:35;;;;;;;40.05;16.90;;;9.70;99.90;;;;;;5046994;28;20028;-89
2022/12/23 10:47:09;;;;;;;38.50;16.90;;;9.70;99.90;;;;;;5054031;28;20098;-87
2022/12/23 10:49:51;;;;;;;49.45;19.70;;;9.70;99.90;;;;;;5054483;28;20097;-88
2022/12/23 10:52:29;;;;;;;38.42;17.90;;;9.70;99.90;;;;;;5057044;28;20111;-87
2022/12/23 10:55:30;;;;;;;42.47;18.02;;;9.70;99.90;;;;;;5054675;28;20372;-87
2022/12/23 10:58:29;;;;;;;42.88;18.92;;;9.70;99.90;;;;;;4984557;28;20042;-89
2022/12/23 11:01:18;;;;;;;46.97;18.80;;;9.80;99.90;;;;;;5038854;28;20039;-87
2022/12/23 11:04:09;;;;;;;44.92;19.02;;;9.70;99.90;;;;;;5066339;28;20040;-87
2022/12/23 11:06:43;;;;;;;41.92;18.80;;;9.70;99.90;;;;;;5055191;28;20037;-86
2022/12/23 11:09:22;;;;;;;41.85;18.83;;;9.80;99.90;;;;;;5055450;28;20123;-87
2022/12/23 11:12:09;;;;;;;49.13;21.35;;;9.80;99.90;;;;;;5037723;28;20040;-87
2022/12/23 11:14:59;;;;;;;48.33;20.45;;;9.80;99.90;;;;;;5054513;28;20035;-87
2022/12/23 11:17:40;;;;;;;50.92;20.75;;;9.80;99.90;;;;;;5072178;28;20044;-86
2022/12/23 11:20:18;;;;;;;56.00;22.00;;;9.80;99.90;;;;;;5054715;28;20498;-86
2022/12/23 11:23:00;;;;;;;60.05;24.70;;;9.80;99.90;;;;;;5033381;28;20028;-86
2022/12/23 11:25:36;;;;;;;64.32;26.25;;;9.80;99.90;;;;;;5054290;28;20032;-86
2022/12/23 11:28:25;;;;;;;69.65;27.65;;;9.80;99.90;;;;;;5052852;28;20043;-88
2022/12/23 11:31:13;;;;;;;63.70;24.88;;;9.80;99.90;;;;;;5071387;28;20032;-89
2022/12/23 11:37:04;;;;;;;56.88;23.00;;;9.80;99.90;;;;;;4975090;28;20043;-87
2022/12/23 11:46:14;;;;;;;57.35;23.23;;;9.90;99.90;;;;;;4970571;28;20034;-88
2022/12/23 11:48:45;;;;;;;52.22;22.88;;;9.80;99.90;;;;;;5031175;28;20353;-88
2022/12/23 11:51:25;;;;;;;52.17;22.40;;;9.80;99.90;;;;;;5054442;28;20147;-87
2022/12/23 11:54:58;;;;;;;60.30;23.58;;;9.80;99.90;;;;;;5053691;28;20071;-88
2022/12/23 11:57:21;;;;;;;49.17;21.55;;;9.80;99.90;;;;;;5056532;28;20132;-88
2022/12/23 12:07:04;;;;;;;54.40;23.65;;;9.80;99.90;;;;;;4990446;28;20490;-88
2022/12/23 12:09:31;;;;;;;48.13;21.40;;;9.80;99.90;;;;;;5014179;28;20024;-89
2022/12/23 12:12:23;;;;;;;45.05;20.73;;;9.80;99.90;;;;;;5052883;28;20388;-87
2022/12/23 12:15:30;;;;;;;45.72;19.55;;;9.80;99.90;;;;;;5049334;28;20483;-88
2022/12/23 12:18:07;;;;;;;45.72;19.77;;;9.80;99.90;;;;;;5059789;28;20041;-88
2022/12/23 12:20:42;;;;;;;39.47;19.05;;;9.70;99.90;;;;;;5051709;28;20055;-87
2022/12/23 12:23:20;;;;;;;41.10;19.25;;;9.70;99.90;;;;;;5057611;28;20105;-87
2022/12/23 12:26:04;;;;;;;41.20;19.60;;;9.70;99.90;;;;;;5047761;28;20044;-87
2022/12/23 12:28:43;;;;;;;45.47;19.90;;;9.70;99.90;;;;;;5046902;28;20380;-87
2022/12/23 12:34:48;;;;;;;52.03;22.20;;;9.80;99.90;;;;;;5050033;28;20037;-89
2022/12/23 12:37:32;;;;;;;46.85;23.83;;;9.70;99.90;;;;;;5050312;28;20123;-88
2022/12/23 12:40:44;;;;;;;49.80;22.67;;;9.70;99.90;;;;;;5047664;28;20134;-88
2022/12/23 12:44:11;;;;;;;42.92;20.33;;;9.70;99.90;;;;;;5039733;28;20029;-87
2022/12/23 12:46:52;;;;;;;36.97;17.70;;;9.70;99.90;;;;;;5037317;28;20033;-88
2022/12/23 12:49:46;;;;;;;44.70;21.85;;;9.60;99.90;;;;;;5050180;28;20468;-89
2022/12/23 12:52:18;;;;;;;37.65;17.90;;;9.70;99.90;;;;;;5053527;28;20380;-87
2022/12/23 12:55:00;;;;;;;32.97;16.55;;;9.70;99.90;;;;;;5051913;28;20090;-87
2022/12/23 12:57:35;;;;;;;30.13;15.93;;;9.70;99.90;;;;;;5049448;28;20025;-87
2022/12/23 13:00:24;;;;;;;;;;;;;;;;;;;;;
2022/12/23 13:03:17;;;;;;;33.50;16.92;;;9.70;99.90;;;;;;5042923;28;20051;-87
2022/12/23 13:06:22;;;;;;;39.23;18.20;;;9.60;99.90;;;;;;5052977;28;20028;-88
2022/12/23 13:09:25;;;;;;;39.83;19.75;;;9.60;99.90;;;;;;5062582;28;20029;-87
2022/12/23 13:12:31;;;;;;;39.70;18.73;;;9.60;99.90;;;;;;5048447;28;20067;-86
2022/12/23 13:15:45;;;;;;;34.72;16.90;;;9.60;99.90;;;;;;5051175;28;20472;-88
2022/12/23 13:18:24;;;;;;;32.67;15.95;;;9.60;99.90;;;;;;4990241;28;20500;-88
2022/12/23 13:21:31;;;;;;;30.52;16.42;;;9.60;99.90;;;;;;5031147;28;21265;-87
2022/12/23 13:24:18;;;;;;;29.75;15.32;;;9.60;99.90;;;;;;5006502;28;20107;-87
2022/12/23 13:27:04;;;;;;;28.88;14.38;;;9.60;99.90;;;;;;5025763;28;20120;-88
2022/12/23 13:30:13;;;;;;;;;;;;;;;;;;;;;
2022/12/23 13:33:13;;;;;;;28.52;14.05;;;9.70;99.90;;;;;;5025266;28;20041;-87
2022/12/23 13:36:16;;;;;;;23.13;13.55;;;9.70;99.90;;;;;;4945087;28;20054;-88
2022/12/23 13:39:16;;;;;;;21.48;12.60;;;9.70;99.90;;;;;;5028908;28;20057;-89
2022/12/23 13:41:48;;;;;;;24.80;12.60;;;9.70;99.90;;;;;;5032136;28;20568;-90
2022/12/23 13:47:50;;;;;;;;;;;;;;;;;;;;;
2022/12/23 13:51:21;;;;;;;;;;;;;;;;;;;;;
2022/12/23 13:54:50;;;;;;;;;;;;;;;;;;;;;
2022/12/23 13:57:55;;;;;;;19.95;11.20;;;9.70;99.90;;;;;;4943227;28;20038;-92
2022/12/23 14:00:39;;;;;;;19.95;10.98;;;9.80;99.90;;;;;;4951412;28;20046;-89
2022/12/23 14:03:43;;;;;;;22.08;12.60;;;9.70;99.90;;;;;;4927967;29;20118;-90
2022/12/23 14:06:43;;;;;;;24.70;12.85;;;9.80;99.90;;;;;;4936934;28;20081;-88
2022/12/23 14:10:26;;;;;;;;;;;;;;;;;;;;;
2022/12/23 14:13:28;;;;;;;18.17;11.32;;;9.80;99.90;;;;;;4875993;29;20615;-88
2022/12/23 14:16:50;;;;;;;;;;;;;;;;;;;;;
2022/12/23 14:19:47;;;;;;;;;;;;;;;;;;;;;
2022/12/23 14:22:46;;;;;;;27.60;13.40;;;9.80;99.90;;;;;;5030313;28;20037;-89
2022/12/23 14:26:02;;;;;;;26.23;13.88;;;9.80;99.90;;;;;;5008647;28;20477;-89
2022/12/23 14:29:04;;;;;;;23.15;12.48;;;9.70;99.90;;;;;;5030231;28;20408;-89
2022/12/23 14:40:20;;;;;;;22.98;12.52;;;9.70;99.90;;;;;;5059254;28;20072;-91
2022/12/23 14:43:25;;;;;;;21.17;12.30;;;9.70;99.90;;;;;;5025259;28;20102;-90
2022/12/23 14:46:36;;;;;;;;;;;;;;;;;;;;;
2022/12/23 14:49:41;;;;;;;19.20;10.63;;;9.70;99.90;;;;;;5071872;28;20043;-89
2022/12/23 14:52:47;;;;;;;18.95;10.65;;;9.70;99.90;;;;;;5053245;28;20106;-89
2022/12/23 14:55:22;;;;;;;17.30;10.85;;;9.70;99.90;;;;;;5053897;28;20037;-90
2022/12/23 14:58:31;;;;;;;19.67;11.05;;;9.70;99.90;;;;;;5054150;28;20044;-89
2022/12/23 15:01:25;;;;;;;21.98;12.45;;;9.70;99.90;;;;;;5065833;28;20032;-90
2022/12/23 15:04:09;;;;;;;;;;;;;;;;;;;;;
2022/12/23 15:07:05;;;;;;;;;;;;;;;;;;;;;
2022/12/23 15:09:42;;;;;;;24.17;14.00;;;9.60;99.90;;;;;;5071954;28;20026;-89
2022/12/23 15:12:43;;;;;;;24.23;13.20;;;9.60;99.90;;;;;;5053685;28;20047;-90
2022/12/23 15:15:41;;;;;;;20.80;12.27;;;9.60;99.90;;;;;;5055236;28;20032;-88
2022/12/23 15:18:19;;;;;;;20.67;11.60;;;9.60;99.90;;;;;;5052824;28;20041;-91
2022/12/23 15:21:14;;;;;;;20.48;12.52;;;9.60;99.90;;;;;;5069874;28;20111;-90
2022/12/23 15:24:24;;;;;;;;;;;;;;;;;;;;;
2022/12/23 15:26:55;;;;;;;16.95;10.10;;;9.60;99.90;;;;;;5069747;28;20357;-91
2022/12/23 15:37:25;;;;;;;20.63;11.75;;;9.60;99.90;;;;;;5001686;28;20218;-89
2022/12/23 15:40:39;;;;;;;;;;;;;;;;;;;;;
2022/12/23 15:50:07;;;;;;;;;;;;;;;;;;;;;
2022/12/23 15:53:24;;;;;;;17.08;9.82;;;9.60;99.90;;;;;;5029390;28;20031;-92
2022/12/23 15:55:59;;;;;;;16.63;9.40;;;9.70;99.90;;;;;;5017559;28;20050;-90
2022/12/23 15:58:58;;;;;;;15.02;9.13;;;9.60;99.90;;;;;;4992031;28;20274;-88
2022/12/23 16:02:03;;;;;;;15.25;8.95;;;9.60;99.90;;;;;;5027523;28;20030;-88
2022/12/23 16:04:29;;;;;;;17.65;8.90;;;9.60;99.90;;;;;;5028248;28;20075;-89
2022/12/23 16:07:21;;;;;;;14.20;8.90;;;9.60;99.90;;;;;;5032174;28;20033;-90
2022/12/23 16:10:20;;;;;;;;;;;;;;;;;;;;;
2022/12/23 16:13:01;;;;;;;;;;;;;;;;;;;;;
2022/12/23 16:15:39;;;;;;;14.48;9.13;;;9.60;99.90;;;;;;5028366;28;20350;-90